Time;durP1;ratioP1;P1;durP2;ratioP2;P2;SDS_P1;SDS_P2;PMS_P1;PMS_P2;Temp;Humidity;BMP_temperature;BMP_pressure;BME280_temperature;BME280_humidity;BME280_pressure;Samples;Min_cycle;Max_cycle;Signal;HPM_P1;HPM_P2
2023/12/18 00:00:14;;;;;;;4.40;1.70;;;;;;;13.80;46.85;103103.84;5063610;28;20068;-60
2023/12/18 00:02:40;;;;;;;6.60;1.95;;;;;;;13.77;45.14;103098.66;5069087;28;20462;-59
2023/12/18 00:05:07;;;;;;;8.13;2.03;;;;;;;13.81;46.72;103119.06;5073101;28;20025;-59
2023/12/18 00:07:32;;;;;;;5.45;1.80;;;;;;;13.80;46.71;103114.63;5071874;28;20036;-60
2023/12/18 00:09:57;;;;;;;4.53;1.88;;;;;;;13.75;46.40;103112.22;5073127;28;20062;-59
2023/12/18 00:12:23;;;;;;;8.65;1.92;;;;;;;13.75;45.16;103106.84;5071822;28;20078;-60
2023/12/18 00:14:48;;;;;;;3.17;1.63;;;;;;;13.73;46.36;103105.22;5071651;28;20056;-60
2023/12/18 00:17:13;;;;;;;7.03;1.75;;;;;;;13.72;46.31;103111.53;5055032;28;20488;-62
2023/12/18 00:19:39;;;;;;;8.00;1.70;;;;;;;13.70;45.49;103097.31;5071645;28;20412;-59
2023/12/18 00:22:04;;;;;;;5.22;1.50;;;;;;;13.70;46.60;103113.47;5072849;28;20040;-60
2023/12/18 00:24:30;;;;;;;7.45;1.98;;;;;;;13.69;46.73;103106.34;5072428;28;20112;-60
2023/12/18 00:26:55;;;;;;;6.40;1.77;;;;;;;13.67;45.50;103108.28;5072786;28;20111;-60
2023/12/18 00:29:20;;;;;;;4.88;2.33;;;;;;;13.70;45.55;103118.88;5071580;28;20025;-60
2023/12/18 00:31:47;;;;;;;2.78;1.63;;;;;;;13.67;45.89;103109.16;5071671;28;20111;-59
2023/12/18 00:34:13;;;;;;;5.57;1.95;;;;;;;13.64;44.83;103100.38;5071583;28;20036;-60
2023/12/18 00:36:39;;;;;;;4.65;2.08;;;;;;;13.62;45.06;103102.31;5071404;28;20519;-60
2023/12/18 00:39:08;;;;;;;8.38;1.95;;;;;;;13.57;45.18;103102.56;5072277;28;20116;-59
2023/12/18 00:41:34;;;;;;;4.50;1.63;;;;;;;13.54;45.24;103097.34;5071508;28;20036;-60
2023/12/18 00:44:00;;;;;;;2.88;1.55;;;;;;;13.49;45.85;103101.28;5072751;28;20567;-59
2023/12/18 00:46:25;;;;;;;7.85;2.08;;;;;;;13.47;45.46;103090.63;5071484;28;20072;-59
2023/12/18 00:48:51;;;;;;;7.55;1.58;;;;;;;13.47;45.31;103095.13;5072724;28;20050;-59
2023/12/18 00:51:17;;;;;;;7.18;1.77;;;;;;;13.47;45.01;103093.31;5070467;28;20094;-59
2023/12/18 00:53:42;;;;;;;2.17;1.30;;;;;;;13.48;45.86;103099.56;5071391;28;20111;-60
2023/12/18 00:56:07;;;;;;;2.13;1.48;;;;;;;13.47;45.24;103103.22;5072498;28;20045;-59
2023/12/18 00:58:33;;;;;;;4.35;1.52;;;;;;;13.46;45.01;103105.03;5071254;28;20487;-60
2023/12/18 01:00:59;;;;;;;9.90;2.00;;;;;;;13.45;46.00;103089.00;5071080;28;20044;-59
2023/12/18 01:03:24;;;;;;;2.20;1.70;;;;;;;13.42;45.13;103092.72;5072205;28;20107;-60
2023/12/18 01:05:49;;;;;;;4.10;1.10;;;;;;;13.41;45.46;103093.69;5076487;28;20496;-59
2023/12/18 01:08:15;;;;;;;9.75;1.80;;;;;;;13.39;45.95;103092.91;5076412;28;20025;-59
2023/12/18 01:10:41;;;;;;;6.10;1.30;;;;;;;13.38;44.47;103085.78;5074941;28;20063;-59
2023/12/18 01:13:06;;;;;;;3.55;1.73;;;;;;;13.34;44.50;103074.31;5073766;28;20052;-59
2023/12/18 01:15:32;;;;;;;4.93;1.85;;;;;;;13.28;45.66;103077.41;5074675;28;20112;-59
2023/12/18 01:17:57;;;;;;;5.50;1.80;;;;;;;13.27;45.21;103083.75;5075004;28;20032;-59
2023/12/18 01:20:23;;;;;;;5.63;2.08;;;;;;;13.24;45.13;103083.91;5075969;28;20043;-60
2023/12/18 01:22:48;;;;;;;4.38;2.15;;;;;;;13.19;45.08;103077.94;5075953;28;20503;-60
2023/12/18 01:25:14;;;;;;;3.42;1.60;;;;;;;13.23;45.60;103082.19;5074953;28;20029;-59
2023/12/18 01:27:40;;;;;;;4.82;2.33;;;;;;;13.22;45.05;103084.97;5074743;28;20032;-60
2023/12/18 01:30:06;;;;;;;6.45;2.10;;;;;;;13.18;45.02;103089.66;5074867;28;20036;-59
2023/12/18 01:32:32;;;;;;;5.13;2.00;;;;;;;13.20;44.89;103101.22;5076261;28;20024;-59
2023/12/18 01:34:58;;;;;;;3.10;1.98;;;;;;;13.21;46.13;103104.75;5075268;28;20085;-60
2023/12/18 01:37:24;;;;;;;5.63;2.13;;;;;;;13.19;44.65;103102.16;5076295;28;20064;-59
2023/12/18 01:39:49;;;;;;;5.30;1.77;;;;;;;13.20;45.99;103109.31;5074409;28;20515;-59
2023/12/18 01:42:14;;;;;;;7.63;2.03;;;;;;;13.20;44.84;103103.91;5075569;28;20064;-60
2023/12/18 01:44:40;;;;;;;8.93;2.10;;;;;;;13.18;45.62;103111.19;5074334;28;20033;-59
2023/12/18 01:47:06;;;;;;;4.07;1.88;;;;;;;13.18;44.57;103110.31;5074460;28;20543;-59
2023/12/18 01:49:31;;;;;;;5.50;1.73;;;;;;;13.16;45.60;103112.25;5074502;28;20029;-59
2023/12/18 01:51:58;;;;;;;8.18;2.00;;;;;;;13.14;45.85;103106.97;5075476;28;20032;-60
2023/12/18 01:54:23;;;;;;;4.28;2.10;;;;;;;13.16;44.54;103104.16;5074693;28;20084;-59
2023/12/18 01:56:52;;;;;;;2.47;1.50;;;;;;;13.14;45.03;103093.50;5073997;28;20615;-59
2023/12/18 01:59:18;;;;;;;4.00;1.88;;;;;;;13.12;46.12;103091.88;5050749;28;20040;-60
2023/12/18 02:01:44;;;;;;;4.00;2.08;;;;;;;13.09;45.42;103095.56;5073847;28;20052;-60
2023/12/18 02:04:09;;;;;;;4.70;2.28;;;;;;;13.10;45.37;103093.75;5074170;28;20047;-60
2023/12/18 02:06:35;;;;;;;5.85;2.30;;;;;;;13.09;44.91;103084.81;5073983;28;20037;-60
2023/12/18 02:09:02;;;;;;;11.43;2.40;;;;;;;13.10;45.42;103091.94;5073806;28;20120;-60
2023/12/18 02:11:28;;;;;;;10.48;2.15;;;;;;;13.08;44.51;103093.88;5075122;28;20074;-60
2023/12/18 02:13:53;;;;;;;7.03;2.03;;;;;;;13.02;45.27;103090.63;5074001;28;20044;-60
2023/12/18 02:16:22;;;;;;;15.10;2.10;;;;;;;13.05;44.87;103099.38;5074284;28;20040;-59
2023/12/18 02:18:47;;;;;;;8.80;2.13;;;;;;;13.00;44.74;103101.47;5073729;28;20094;-60
2023/12/18 02:21:19;;;;;;;6.50;2.30;;;;;;;13.02;44.91;103093.31;5074624;28;20040;-60
2023/12/18 02:23:44;;;;;;;2.78;1.88;;;;;;;12.99;45.57;103099.75;5074704;28;20033;-60
2023/12/18 02:26:10;;;;;;;3.47;1.80;;;;;;;12.99;45.15;103094.34;5075190;28;20480;-60
2023/12/18 02:28:35;;;;;;;6.18;1.88;;;;;;;12.96;45.30;103099.91;5077342;28;20045;-60
2023/12/18 02:31:02;;;;;;;8.90;1.73;;;;;;;12.96;45.93;103104.41;5059216;28;20045;-60
2023/12/18 02:33:27;;;;;;;3.10;1.85;;;;;;;12.93;45.13;103100.09;5075738;28;20036;-60
2023/12/18 02:35:53;;;;;;;4.95;1.55;;;;;;;12.92;45.58;103102.88;5076026;28;20538;-60
2023/12/18 02:38:18;;;;;;;4.28;1.73;;;;;;;12.91;45.72;103101.13;5077018;28;20035;-59
2023/12/18 02:40:43;;;;;;;5.65;1.80;;;;;;;12.88;45.09;103096.81;5076051;28;20036;-60
2023/12/18 02:43:10;;;;;;;3.17;1.70;;;;;;;12.85;45.65;103096.97;5074398;28;20040;-60
2023/12/18 02:45:35;;;;;;;6.97;2.80;;;;;;;12.83;45.17;103097.06;5073309;28;20078;-60
2023/12/18 02:48:01;;;;;;;4.35;1.73;;;;;;;12.80;44.28;103094.56;5072856;28;20078;-60
2023/12/18 02:50:26;;;;;;;4.15;1.70;;;;;;;12.78;44.44;103095.59;5055218;28;20048;-60
2023/12/18 02:52:51;;;;;;;3.22;1.83;;;;;;;12.74;44.77;103094.03;5073257;28;20054;-60
2023/12/18 02:55:18;;;;;;;3.35;2.10;;;;;;;12.75;45.02;103107.41;5056370;28;20043;-60
2023/12/18 02:57:43;;;;;;;4.28;1.90;;;;;;;12.72;45.15;103106.72;5072685;28;20045;-60
2023/12/18 03:00:09;;;;;;;5.38;2.28;;;;;;;12.65;45.41;103090.03;5074109;28;20041;-60
2023/12/18 03:02:34;;;;;;;4.28;2.00;;;;;;;12.66;44.93;103096.28;5074400;28;20043;-60
2023/12/18 03:05:00;;;;;;;7.75;2.28;;;;;;;12.63;44.90;103088.41;5057315;28;20120;-60
2023/12/18 03:07:25;;;;;;;5.15;2.00;;;;;;;12.60;44.66;103096.63;5073127;28;20037;-60
2023/12/18 03:09:50;;;;;;;3.40;1.48;;;;;;;12.55;45.11;103093.34;5073894;28;20029;-59
2023/12/18 03:12:16;;;;;;;7.20;2.00;;;;;;;12.55;45.40;103098.72;5073709;28;20407;-59
2023/12/18 03:14:41;;;;;;;2.45;2.08;;;;;;;12.51;45.54;103097.16;5072696;28;20036;-60
2023/12/18 03:17:07;;;;;;;3.90;2.10;;;;;;;12.49;45.42;103099.06;5072681;28;20467;-60
2023/12/18 03:19:32;;;;;;;4.60;1.63;;;;;;;12.46;44.13;103096.53;5073701;28;20044;-60
2023/12/18 03:21:58;;;;;;;3.42;2.10;;;;;;;12.41;45.52;103093.25;5073790;28;20066;-60
2023/12/18 03:24:23;;;;;;;4.68;2.05;;;;;;;12.39;44.57;103084.41;5073966;28;20044;-60
2023/12/18 03:26:49;;;;;;;4.55;2.28;;;;;;;12.35;45.19;103093.59;5073783;28;20503;-60
2023/12/18 03:29:14;;;;;;;6.97;2.00;;;;;;;12.31;45.61;103090.19;5072711;28;20035;-60
2023/12/18 03:31:40;;;;;;;5.28;1.83;;;;;;;12.27;45.14;103077.91;5072728;28;20106;-60
2023/12/18 03:34:06;;;;;;;4.70;1.60;;;;;;;12.22;44.83;103088.91;5074391;28;20448;-59
2023/12/18 03:36:31;;;;;;;6.45;1.73;;;;;;;12.19;44.35;103090.88;5074241;28;20117;-60
2023/12/18 03:38:57;;;;;;;6.00;2.70;;;;;;;12.12;44.44;103082.28;5072826;28;20037;-60
2023/12/18 03:41:22;;;;;;;3.72;1.70;;;;;;;12.09;44.84;103095.88;5073152;28;20117;-59
2023/12/18 03:43:48;;;;;;;7.13;2.45;;;;;;;12.06;45.10;103084.47;5071894;28;20530;-61
2023/12/18 03:46:13;;;;;;;3.63;2.15;;;;;;;11.98;45.56;103084.84;5073488;28;20041;-61
2023/12/18 03:48:39;;;;;;;3.95;1.98;;;;;;;11.96;44.99;103083.19;5072811;28;20032;-60
2023/12/18 03:51:05;;;;;;;6.05;2.03;;;;;;;11.93;44.90;103084.25;5055148;28;20438;-59
2023/12/18 03:53:30;;;;;;;4.10;1.95;;;;;;;11.85;45.36;103073.03;5073206;28;20036;-61
2023/12/18 03:55:57;;;;;;;7.43;1.73;;;;;;;11.83;44.95;103066.91;5072956;28;20052;-61
2023/12/18 03:58:22;;;;;;;5.68;2.15;;;;;;;11.78;45.36;103063.56;5073251;28;20418;-60
2023/12/18 04:00:48;;;;;;;4.97;1.73;;;;;;;11.71;44.88;103059.47;5071795;28;20032;-60
2023/12/18 04:03:13;;;;;;;6.22;2.00;;;;;;;11.69;44.56;103069.44;5055902;27;20119;-60
2023/12/18 04:05:38;;;;;;;4.97;2.83;;;;;;;11.64;44.62;103060.75;5072086;28;20021;-59
2023/12/18 04:08:04;;;;;;;6.20;2.85;;;;;;;11.65;45.80;103065.13;5054932;28;20472;-60
2023/12/18 04:10:30;;;;;;;5.80;2.50;;;;;;;11.63;45.26;103059.88;5073379;28;20095;-60
2023/12/18 04:12:55;;;;;;;3.90;2.03;;;;;;;11.55;45.84;103045.13;5071694;28;20528;-60
2023/12/18 04:15:21;;;;;;;4.47;3.08;;;;;;;11.60;44.67;103059.16;5073204;28;20025;-60
2023/12/18 04:17:46;;;;;;;6.35;2.67;;;;;;;11.56;44.89;103062.94;5071803;28;20026;-60
2023/12/18 04:20:12;;;;;;;7.95;2.42;;;;;;;11.55;44.62;103072.81;5072355;28;20472;-60
2023/12/18 04:22:37;;;;;;;8.80;2.80;;;;;;;11.53;45.08;103073.84;5055679;28;20029;-60
2023/12/18 04:25:03;;;;;;;5.30;2.60;;;;;;;11.51;45.31;103079.28;5073950;28;20099;-61
2023/12/18 04:27:28;;;;;;;6.68;2.53;;;;;;;11.49;45.13;103080.31;5073090;28;20391;-60
2023/12/18 04:29:53;;;;;;;4.88;2.55;;;;;;;11.50;44.97;103079.38;5071620;27;20031;-60
2023/12/18 04:32:19;;;;;;;4.60;2.50;;;;;;;11.49;45.72;103080.31;5072778;28;20433;-60
2023/12/18 04:34:44;;;;;;;7.38;2.42;;;;;;;11.49;45.66;103077.63;5071789;28;20031;-59
2023/12/18 04:37:10;;;;;;;5.65;3.20;;;;;;;11.49;45.87;103070.47;5071232;28;20033;-60
2023/12/18 04:39:35;;;;;;;8.27;3.53;;;;;;;11.51;45.32;103065.00;5075752;28;20379;-60
2023/12/18 04:42:01;;;;;;;11.38;3.33;;;;;;;11.48;45.46;103060.66;5075887;28;20069;-60
2023/12/18 04:44:26;;;;;;;7.28;3.63;;;;;;;11.58;45.72;103072.66;5058754;28;20071;-59
2023/12/18 04:46:52;;;;;;;6.78;2.83;;;;;;;11.63;46.08;103075.09;5076672;28;20074;-60
2023/12/18 04:49:18;;;;;;;5.30;3.03;;;;;;;11.63;46.09;103069.72;5074370;28;20017;-60
2023/12/18 04:51:43;;;;;;;5.50;3.28;;;;;;;11.72;45.39;103089.91;5075332;28;20024;-60
2023/12/18 04:54:09;;;;;;;5.03;2.55;;;;;;;11.76;45.52;103089.63;5075236;28;20483;-60
2023/12/18 04:56:34;;;;;;;5.00;3.80;;;;;;;11.83;46.33;103088.38;5076372;28;20076;-60
2023/12/18 04:58:59;;;;;;;13.20;4.18;;;;;;;11.88;46.12;103089.00;5075228;28;20032;-59
2023/12/18 05:01:25;;;;;;;8.20;3.72;;;;;;;11.91;46.11;103087.97;5058328;28;20059;-59
2023/12/18 05:03:51;;;;;;;10.48;4.20;;;;;;;11.95;46.46;103090.38;5075100;28;20035;-60
2023/12/18 05:06:23;;;;;;;11.13;3.75;;;;;;;12.03;46.00;103090.84;5075040;28;20491;-60
2023/12/18 05:08:49;;;;;;;13.27;4.60;;;;;;;12.08;46.73;103082.53;5076444;28;20112;-60
2023/12/18 05:11:18;;;;;;;10.25;5.40;;;;;;;12.12;45.97;103076.91;5075097;28;20514;-59
2023/12/18 05:13:44;;;;;;;9.95;5.25;;;;;;;12.17;45.79;103079.38;5076188;28;20035;-60
2023/12/18 05:16:09;;;;;;;13.43;4.60;;;;;;;12.21;46.04;103079.09;5074923;28;20115;-59
2023/12/18 05:18:35;;;;;;;12.05;5.82;;;;;;;12.20;46.40;103071.97;5074713;28;20085;-60
2023/12/18 05:21:01;;;;;;;11.52;5.78;;;;;;;12.26;46.42;103077.03;5076281;28;20514;-60
2023/12/18 05:23:26;;;;;;;14.55;5.32;;;;;;;12.32;46.59;103077.63;5076063;28;20484;-60
2023/12/18 05:25:52;;;;;;;11.95;6.10;;;;;;;12.35;47.02;103080.16;5075999;28;20024;-60
2023/12/18 05:28:18;;;;;;;15.95;7.47;;;;;;;12.35;47.09;103081.03;5074610;28;20077;-60
2023/12/18 05:30:44;;;;;;;14.60;7.35;;;;;;;12.34;46.53;103073.06;5058052;28;20032;-60
2023/12/18 05:33:10;;;;;;;17.85;7.07;;;;;;;12.33;46.43;103074.00;5075979;28;20510;-59
2023/12/18 05:35:35;;;;;;;17.00;7.15;;;;;;;12.35;47.00;103072.09;5057760;28;20507;-60
2023/12/18 05:38:00;;;;;;;20.15;7.15;;;;;;;12.40;46.93;103072.69;5074513;28;20025;-60
2023/12/18 05:40:26;;;;;;;14.07;7.38;;;;;;;12.42;47.47;103079.75;5075740;28;20439;-59
2023/12/18 05:42:51;;;;;;;17.35;7.20;;;;;;;12.44;46.09;103085.03;5075635;28;20024;-60
2023/12/18 05:45:17;;;;;;;18.10;7.88;;;;;;;12.47;46.46;103079.47;5074228;28;20036;-59
2023/12/18 05:47:42;;;;;;;16.40;7.88;;;;;;;12.48;46.16;103087.44;5075380;28;20396;-60
2023/12/18 05:50:08;;;;;;;21.08;8.13;;;;;;;12.47;46.84;103076.78;5074236;28;20036;-60
2023/12/18 05:52:33;;;;;;;16.45;8.18;;;;;;;12.45;46.48;103087.59;5075330;28;20139;-60
2023/12/18 05:54:59;;;;;;;17.50;7.85;;;;;;;12.46;47.55;103083.09;5074154;28;20083;-60
2023/12/18 05:57:24;;;;;;;19.55;8.43;;;;;;;12.48;47.37;103086.59;5074257;28;20041;-60
2023/12/18 05:59:50;;;;;;;21.05;8.40;;;;;;;12.50;46.59;103084.69;5074261;28;20120;-60
2023/12/18 06:02:15;;;;;;;15.90;8.38;;;;;;;12.47;47.19;103077.66;5075426;28;20028;-59
2023/12/18 06:04:44;;;;;;;17.50;7.68;;;;;;;12.44;47.17;103079.63;5074025;28;20036;-60
2023/12/18 06:07:10;;;;;;;16.80;7.93;;;;;;;12.39;47.67;103071.84;5074206;28;20087;-60
2023/12/18 06:09:35;;;;;;;13.43;7.95;;;;;;;12.44;46.81;103076.94;5074014;28;20029;-60
2023/12/18 06:12:01;;;;;;;20.20;7.93;;;;;;;12.47;46.83;103074.09;5073710;28;20029;-60
2023/12/18 06:14:27;;;;;;;20.60;9.02;;;;;;;12.48;46.79;103075.84;5074048;28;20441;-60
2023/12/18 06:16:53;;;;;;;14.73;7.60;;;;;;;12.49;47.44;103077.56;5075100;28;20028;-60
2023/12/18 06:19:18;;;;;;;13.75;7.63;;;;;;;12.45;47.53;103070.63;5074121;28;20161;-60
2023/12/18 06:21:43;;;;;;;18.30;7.43;;;;;;;12.48;46.76;103070.47;5074222;28;20029;-60
2023/12/18 06:24:09;;;;;;;13.70;7.60;;;;;;;12.53;47.42;103081.81;5075848;28;20033;-60
2023/12/18 06:26:34;;;;;;;16.33;7.55;;;;;;;12.54;47.35;103075.47;5075745;28;20033;-60
2023/12/18 06:29:00;;;;;;;15.55;7.30;;;;;;;12.54;46.80;103079.03;5076045;28;20034;-64
2023/12/18 06:31:25;;;;;;;15.88;6.93;;;;;;;12.54;47.26;103084.41;5076327;28;20440;-61
2023/12/18 06:33:50;;;;;;;14.98;6.95;;;;;;;12.55;46.81;103082.59;5077132;28;20024;-59
2023/12/18 06:36:19;;;;;;;15.15;7.38;;;;;;;12.53;47.60;103080.00;5069480;28;20043;-60
2023/12/18 06:38:45;;;;;;;19.30;6.88;;;;;;;12.52;47.67;103082.75;5073458;28;20067;-60
2023/12/18 06:41:11;;;;;;;17.85;7.25;;;;;;;12.51;47.59;103087.25;5073557;28;20044;-60
2023/12/18 06:43:36;;;;;;;19.75;7.88;;;;;;;12.50;46.59;103085.56;5056066;28;20035;-60
2023/12/18 06:46:02;;;;;;;18.88;7.55;;;;;;;12.50;46.88;103098.13;5074523;28;20431;-59
2023/12/18 06:48:27;;;;;;;15.57;7.47;;;;;;;12.51;47.07;103097.16;5072586;28;20035;-59
2023/12/18 06:50:52;;;;;;;14.77;7.45;;;;;;;12.50;47.16;103101.69;5074603;28;20032;-60
2023/12/18 06:53:18;;;;;;;13.80;6.65;;;;;;;12.46;47.24;103102.78;5074409;28;20083;-60
2023/12/18 06:55:43;;;;;;;15.18;7.00;;;;;;;12.41;47.51;103094.13;5073010;28;20032;-59
2023/12/18 06:58:09;;;;;;;14.20;6.72;;;;;;;12.42;47.43;103095.88;5073012;28;20088;-58
2023/12/18 07:00:35;;;;;;;14.73;6.68;;;;;;;12.39;47.61;103093.34;5074008;28;20112;-59
2023/12/18 07:03:00;;;;;;;19.05;7.22;;;;;;;12.39;47.94;103087.09;5072613;28;20107;-59
2023/12/18 07:05:28;;;;;;;14.32;6.40;;;;;;;12.39;47.71;103093.34;5073047;28;20028;-59
2023/12/18 07:07:54;;;;;;;16.85;7.65;;;;;;;12.37;47.52;103091.69;5073384;28;20032;-59
2023/12/18 07:10:20;;;;;;;15.40;7.88;;;;;;;12.32;47.34;103086.56;5073030;28;20518;-60
2023/12/18 07:12:45;;;;;;;13.18;6.55;;;;;;;12.27;47.25;103089.53;5072599;28;20028;-59
2023/12/18 07:15:12;;;;;;;12.15;6.18;;;;;;;12.27;47.63;103094.88;5072973;28;20093;-59
2023/12/18 07:17:37;;;;;;;15.15;6.93;;;;;;;12.23;47.83;103103.19;5055890;28;20540;-59
2023/12/18 07:20:03;;;;;;;17.52;6.95;;;;;;;12.21;46.60;103115.84;5074041;28;20147;-60
2023/12/18 07:22:29;;;;;;;20.92;7.90;;;;;;;12.21;48.08;103119.41;5074710;28;20039;-59
2023/12/18 07:24:54;;;;;;;14.50;6.43;;;;;;;12.19;47.03;103102.50;5056338;28;20108;-59
2023/12/18 07:27:20;;;;;;;17.50;7.50;;;;;;;12.21;47.07;103111.34;5072916;28;20495;-59
2023/12/18 07:29:45;;;;;;;17.23;7.57;;;;;;;12.22;46.92;103112.22;5071363;28;20461;-60
2023/12/18 07:32:10;;;;;;;18.95;7.88;;;;;;;12.21;47.84;103114.03;5066149;28;20036;-59
2023/12/18 07:34:36;;;;;;;17.20;6.22;;;;;;;12.16;47.57;103108.03;5080210;28;20400;-59
2023/12/18 07:37:01;;;;;;;16.15;6.85;;;;;;;12.14;47.89;103099.19;5073695;28;20392;-59
2023/12/18 07:39:28;;;;;;;18.67;7.30;;;;;;;12.09;48.16;103101.25;5073344;28;20043;-59
2023/12/18 07:41:53;;;;;;;16.67;7.47;;;;;;;12.06;48.19;103097.88;5073519;28;20119;-59
2023/12/18 07:44:19;;;;;;;13.52;6.63;;;;;;;12.03;47.38;103106.94;5073736;28;20067;-59
2023/12/18 07:46:47;;;;;;;16.10;6.75;;;;;;;11.97;48.40;103093.88;5072115;28;20040;-59
2023/12/18 07:49:13;;;;;;;17.52;7.75;;;;;;;12.00;47.76;103101.78;5072247;28;20032;-59
2023/12/18 07:51:38;;;;;;;17.80;7.45;;;;;;;11.98;47.60;103098.28;5073582;28;20037;-59
2023/12/18 07:54:04;;;;;;;20.95;7.60;;;;;;;12.02;47.33;103097.19;5073768;28;20032;-58
2023/12/18 07:56:29;;;;;;;15.05;7.13;;;;;;;12.02;48.35;103110.59;5055541;28;20056;-58
2023/12/18 07:58:55;;;;;;;20.55;7.15;;;;;;;12.00;47.87;103101.78;5055585;28;20029;-58
2023/12/18 08:01:20;;;;;;;15.77;7.63;;;;;;;12.05;47.48;103109.56;5073654;28;20377;-59
2023/12/18 08:03:46;;;;;;;16.27;7.63;;;;;;;11.99;47.79;103100.03;5073013;28;20068;-59
2023/12/18 08:06:11;;;;;;;18.75;6.93;;;;;;;12.02;48.13;103109.72;5071850;28;20105;-59
2023/12/18 08:08:37;;;;;;;14.25;6.72;;;;;;;12.08;47.92;103112.09;5072728;28;20408;-60
2023/12/18 08:11:03;;;;;;;15.10;6.07;;;;;;;12.03;48.66;103106.94;5071825;28;20033;-59
2023/12/18 08:13:28;;;;;;;12.75;6.45;;;;;;;12.08;47.78;103117.47;5070967;28;20418;-59
2023/12/18 08:15:54;;;;;;;18.27;6.75;;;;;;;12.03;48.70;103101.59;5072975;28;20130;-59
2023/12/18 08:18:19;;;;;;;16.55;6.15;;;;;;;12.07;48.35;103108.53;5055059;28;20044;-59
2023/12/18 08:20:44;;;;;;;18.75;7.00;;;;;;;11.98;48.60;103098.28;5072868;28;20412;-59
2023/12/18 08:23:10;;;;;;;14.27;6.00;;;;;;;11.95;47.64;103101.13;5071585;28;20032;-59
2023/12/18 08:25:35;;;;;;;14.88;6.55;;;;;;;11.96;48.55;103110.94;5072697;28;20028;-59
2023/12/18 08:28:00;;;;;;;15.70;6.40;;;;;;;11.92;48.07;103103.97;5071676;28;20052;-59
2023/12/18 08:30:26;;;;;;;18.92;7.40;;;;;;;11.93;47.61;103105.72;5072684;28;20044;-60
2023/12/18 08:32:51;;;;;;;13.18;6.18;;;;;;;11.92;47.94;103093.22;5071449;28;20033;-59
2023/12/18 08:35:16;;;;;;;15.70;6.18;;;;;;;11.98;48.16;103090.22;5071538;28;20496;-59
2023/12/18 08:37:42;;;;;;;14.05;6.47;;;;;;;12.05;47.83;103094.34;5072500;28;20037;-59
2023/12/18 08:40:08;;;;;;;16.77;7.22;;;;;;;12.05;47.88;103088.09;5072780;28;20081;-59
2023/12/18 08:42:34;;;;;;;15.25;7.80;;;;;;;12.07;47.99;103095.09;5072770;28;20119;-59
2023/12/18 08:44:59;;;;;;;18.27;7.38;;;;;;;12.09;48.61;103097.69;5071457;28;20158;-59
2023/12/18 08:47:25;;;;;;;21.40;7.75;;;;;;;12.08;49.04;103088.78;5071465;28;20055;-59
2023/12/18 08:49:50;;;;;;;20.35;7.55;;;;;;;12.08;49.13;103078.03;5072148;28;20031;-59
2023/12/18 08:52:16;;;;;;;16.75;7.78;;;;;;;12.11;48.37;103079.69;5072979;28;20119;-59
2023/12/18 08:54:41;;;;;;;17.02;6.55;;;;;;;12.13;48.14;103078.66;5074656;28;20032;-60
2023/12/18 08:57:07;;;;;;;14.98;6.82;;;;;;;12.10;48.26;103068.06;5073439;28;20036;-60
2023/12/18 08:59:32;;;;;;;18.20;7.38;;;;;;;12.13;48.96;103075.97;5072562;28;20039;-59
2023/12/18 09:01:57;;;;;;;14.30;6.97;;;;;;;12.12;47.97;103067.97;5072617;28;20496;-59
2023/12/18 09:04:23;;;;;;;15.75;6.47;;;;;;;12.09;48.51;103063.66;5072475;28;20033;-60
2023/12/18 09:06:49;;;;;;;14.93;6.68;;;;;;;12.05;48.69;103056.72;5071198;28;20043;-59
2023/12/18 09:09:14;;;;;;;17.20;6.32;;;;;;;12.03;48.26;103063.13;5054479;28;20032;-59
2023/12/18 09:11:39;;;;;;;18.95;6.72;;;;;;;11.99;48.22;103056.19;5072338;28;20562;-59
2023/12/18 09:14:05;;;;;;;15.05;7.07;;;;;;;11.94;48.63;103047.50;5071107;28;20032;-59
2023/12/18 09:16:30;;;;;;;22.10;7.05;;;;;;;11.96;49.14;103051.84;5071447;28;20526;-59
2023/12/18 09:18:56;;;;;;;14.48;6.45;;;;;;;11.91;47.93;103037.81;5070989;28;20032;-59
2023/12/18 09:21:21;;;;;;;11.93;6.43;;;;;;;11.98;48.88;103039.19;5071082;28;20107;-60
2023/12/18 09:23:47;;;;;;;17.10;7.03;;;;;;;11.99;48.86;103035.56;5072349;28;20056;-59
2023/12/18 09:26:13;;;;;;;12.90;7.05;;;;;;;12.02;48.11;103045.28;5075022;28;20063;-59
2023/12/18 09:28:39;;;;;;;10.77;5.78;;;;;;;11.99;48.27;103034.69;5058287;28;20036;-59
2023/12/18 09:31:07;;;;;;;18.23;6.85;;;;;;;12.01;48.88;103038.16;5074800;28;20029;-59
2023/12/18 09:33:33;;;;;;;11.77;5.38;;;;;;;11.98;49.19;103033.81;5075877;28;20032;-59
2023/12/18 09:35:59;;;;;;;15.73;6.93;;;;;;;12.06;48.42;103053.06;5057804;28;20450;-59
2023/12/18 09:38:25;;;;;;;13.68;6.07;;;;;;;12.05;48.86;103042.41;5075779;28;20029;-59
2023/12/18 09:40:50;;;;;;;14.85;6.30;;;;;;;12.04;48.58;103041.53;5058105;28;20028;-59
2023/12/18 09:43:17;;;;;;;16.05;6.25;;;;;;;12.04;48.23;103038.84;5074409;28;20029;-59
2023/12/18 09:45:48;;;;;;;13.10;6.28;;;;;;;12.06;48.29;103044.16;5074566;28;20448;-59
2023/12/18 09:48:18;;;;;;;15.82;6.13;;;;;;;12.05;48.53;103040.59;5074538;28;20385;-60
2023/12/18 09:50:44;;;;;;;11.27;5.82;;;;;;;12.03;49.16;103042.47;5075704;28;20199;-60
2023/12/18 09:53:12;;;;;;;14.05;5.90;;;;;;;12.04;49.16;103038.84;5075613;28;20503;-60
2023/12/18 09:55:37;;;;;;;13.85;5.53;;;;;;;12.04;49.33;103046.91;5074193;28;20569;-59
2023/12/18 09:58:03;;;;;;;11.68;5.75;;;;;;;12.06;49.52;103047.69;5057614;28;20041;-60
2023/12/18 10:00:29;;;;;;;11.05;6.05;;;;;;;12.08;49.29;103056.56;5074127;28;20044;-60
2023/12/18 10:02:55;;;;;;;12.80;5.57;;;;;;;12.09;49.05;103047.53;5074273;28;20508;-60
2023/12/18 10:05:21;;;;;;;16.65;6.25;;;;;;;12.09;48.54;103042.16;5057680;28;20519;-60
2023/12/18 10:07:46;;;;;;;16.33;5.88;;;;;;;12.11;49.32;103050.16;5058383;28;20028;-60
2023/12/18 10:10:12;;;;;;;10.88;6.05;;;;;;;12.13;48.36;103054.47;5077338;28;20025;-61
2023/12/18 10:12:40;;;;;;;11.68;5.78;;;;;;;12.11;49.33;103042.97;5075601;28;20108;-60
2023/12/18 10:15:09;;;;;;;11.55;5.97;;;;;;;12.14;48.24;103050.81;5075241;28;20058;-60
2023/12/18 10:17:37;;;;;;;13.63;7.10;;;;;;;12.11;48.19;103034.91;5075147;28;20142;-60
2023/12/18 10:20:03;;;;;;;13.93;6.25;;;;;;;12.18;49.38;103052.41;5075703;28;20049;-60
2023/12/18 10:22:28;;;;;;;15.40;5.82;;;;;;;12.16;48.74;103038.19;5076678;28;20082;-60
2023/12/18 10:24:57;;;;;;;16.00;7.18;;;;;;;12.23;49.59;103044.06;5076040;28;20609;-60
2023/12/18 10:27:22;;;;;;;14.65;6.32;;;;;;;12.23;49.74;103039.56;5075657;28;20032;-60
2023/12/18 10:29:47;;;;;;;13.52;6.10;;;;;;;12.23;49.01;103036.00;5060240;28;20082;-61
2023/12/18 10:32:13;;;;;;;14.43;6.35;;;;;;;12.24;48.76;103019.81;5077954;28;20082;-63
2023/12/18 10:34:39;;;;;;;17.23;6.95;;;;;;;12.30;49.61;103023.09;5077918;28;20107;-60
2023/12/18 10:37:04;;;;;;;14.95;6.60;;;;;;;12.31;48.43;103025.69;5061405;28;20056;-63
2023/12/18 10:39:30;;;;;;;15.02;6.10;;;;;;;12.28;49.11;103021.38;5077899;28;20120;-61
2023/12/18 10:41:59;;;;;;;17.88;7.88;;;;;;;12.31;48.42;103025.69;5058463;28;20052;-62
2023/12/18 10:44:25;;;;;;;17.77;7.68;;;;;;;12.34;48.89;103028.22;5076145;28;20033;-60
2023/12/18 10:46:51;;;;;;;19.00;6.90;;;;;;;12.35;48.21;103023.72;5076542;28;20024;-60
2023/12/18 10:49:17;;;;;;;15.27;6.88;;;;;;;12.31;49.12;103020.31;5059244;27;20111;-60
2023/12/18 10:51:44;;;;;;;14.85;6.32;;;;;;;12.32;49.54;103029.25;5075298;28;20114;-60
2023/12/18 10:54:11;;;;;;;19.20;6.47;;;;;;;12.28;48.51;103021.38;5073385;28;20550;-60
2023/12/18 10:56:38;;;;;;;19.33;8.70;;;;;;;12.29;49.32;103024.91;5056254;28;20056;-61
2023/12/18 10:59:06;;;;;;;14.15;6.25;;;;;;;12.26;49.45;103019.72;5073283;28;20051;-60
2023/12/18 11:01:32;;;;;;;11.20;5.78;;;;;;;12.28;49.74;103020.53;5056544;28;20060;-60
2023/12/18 11:03:58;;;;;;;17.45;7.32;;;;;;;12.27;49.02;103019.66;5056548;28;20028;-61
2023/12/18 11:06:24;;;;;;;13.82;6.32;;;;;;;12.28;48.66;103005.25;5072900;28;20419;-60
2023/12/18 11:08:50;;;;;;;17.75;7.10;;;;;;;12.30;48.31;103017.72;5074367;27;20028;-61
2023/12/18 11:11:17;;;;;;;17.70;6.75;;;;;;;12.28;48.53;103016.00;5074348;28;20029;-60
2023/12/18 11:13:48;;;;;;;14.82;6.60;;;;;;;12.28;48.42;103016.00;5072886;28;20488;-61